createdAt,value
2023-04-01T00:04:44.709Z,12.05
2023-04-01T00:07:12.480Z,14.90
2023-04-01T00:09:45.550Z,9.80
2023-04-01T00:12:13.094Z,13.00
2023-04-01T00:14:41.464Z,8.98
2023-04-01T00:17:09.329Z,10.98
2023-04-01T00:19:37.035Z,10.90
2023-04-01T00:22:05.217Z,11.07
2023-04-01T00:24:33.618Z,11.70
2023-04-01T00:27:01.488Z,9.55
2023-04-01T00:29:30.628Z,13.73
2023-04-01T00:31:59.602Z,10.80
2023-04-01T00:34:27.340Z,10.85
2023-04-01T00:36:58.838Z,9.93
2023-04-01T00:39:31.044Z,13.32
2023-04-01T00:41:59.204Z,13.43
2023-04-01T00:44:35.595Z,9.07
2023-04-01T00:47:03.487Z,9.60
2023-04-01T00:49:45.997Z,15.57
2023-04-01T00:52:15.833Z,13.90
2023-04-01T00:54:45.331Z,10.05
2023-04-01T00:57:28.476Z,13.57
2023-04-01T00:59:56.750Z,14.43
2023-04-01T01:02:27.994Z,15.10
2023-04-01T01:04:56.111Z,15.80
2023-04-01T01:07:47.977Z,14.88
2023-04-01T01:10:19.148Z,12.88
2023-04-01T01:12:48.293Z,18.95
2023-04-01T01:15:32.972Z,15.68
2023-04-01T01:18:21.964Z,13.07
2023-04-01T01:21:09.227Z,16.90
2023-04-01T01:23:49.168Z,18.17
2023-04-01T01:26:32.273Z,18.50
2023-04-01T01:29:14.238Z,17.58
2023-04-01T01:32:01.609Z,16.92
2023-04-01T01:34:48.442Z,18.50
2023-04-01T01:37:18.139Z,20.42
2023-04-01T01:39:48.823Z,19.40
2023-04-01T01:42:19.321Z,21.75
2023-04-01T01:47:16.202Z,16.58
2023-04-01T01:49:44.777Z,21.73
2023-04-01T01:52:13.162Z,20.42
2023-04-01T01:54:57.287Z,23.48
2023-04-01T01:57:33.568Z,20.25
2023-04-01T02:00:15.055Z,20.10
2023-04-01T02:02:51.891Z,23.02
2023-04-01T02:05:31.148Z,21.58
2023-04-01T02:08:11.693Z,22.52
2023-04-01T02:10:41.613Z,22.63
2023-04-01T02:13:19.529Z,20.75
2023-04-01T02:15:50.499Z,18.90
2023-04-01T02:18:20.237Z,20.30
2023-04-01T02:20:48.088Z,19.97
2023-04-01T02:23:16.137Z,16.73
2023-04-01T02:25:45.174Z,17.85
2023-04-01T02:28:14.812Z,17.17
2023-04-01T02:30:44.941Z,18.00
2023-04-01T02:33:13.675Z,21.95
2023-04-01T02:35:41.683Z,22.33
2023-04-01T02:38:09.552Z,25.38
2023-04-01T02:40:48.289Z,19.60
2023-04-01T02:43:16.285Z,15.00
2023-04-01T02:45:44.799Z,18.15
2023-04-01T02:48:13.860Z,17.40
2023-04-01T02:50:42.156Z,18.10
2023-04-01T02:53:10.054Z,14.73
2023-04-01T02:55:43.061Z,11.90
2023-04-01T02:58:12.952Z,11.95
2023-04-01T03:00:40.548Z,11.20
2023-04-01T03:03:09.849Z,8.70
2023-04-01T03:05:37.868Z,7.47
2023-04-01T03:08:08.034Z,8.60
2023-04-01T03:10:36.134Z,9.73
2023-04-01T03:13:06.668Z,10.45
2023-04-01T03:15:34.804Z,10.90
2023-04-01T03:18:02.419Z,9.57
2023-04-01T03:20:30.466Z,8.70
2023-04-01T03:23:01.085Z,10.48
2023-04-01T03:25:29.771Z,10.95
2023-04-01T03:27:57.576Z,12.60
2023-04-01T03:30:31.061Z,9.07
2023-04-01T03:33:01.025Z,8.80
2023-04-01T03:35:31.542Z,9.30
2023-04-01T03:40:27.726Z,11.95
2023-04-01T03:42:57.311Z,11.05
2023-04-01T03:45:25.564Z,10.27
2023-04-01T03:47:56.123Z,16.90
2023-04-01T03:50:24.886Z,9.77
2023-04-01T03:52:53.312Z,9.82
2023-04-01T03:55:24.253Z,10.68
2023-04-01T03:57:52.044Z,9.70
2023-04-01T04:00:21.288Z,10.60
2023-04-01T04:02:59.113Z,11.23
2023-04-01T04:05:32.636Z,12.80
2023-04-01T04:08:01.436Z,10.40
2023-04-01T04:10:34.123Z,10.43
2023-04-01T04:13:02.976Z,8.50
2023-04-01T04:15:32.501Z,10.57
2023-04-01T04:18:01.273Z,10.15
2023-04-01T04:20:29.673Z,12.30
2023-04-01T04:22:57.152Z,15.38
2023-04-01T04:25:29.624Z,12.88
2023-04-01T04:27:57.742Z,11.98
2023-04-01T04:30:26.029Z,14.93
2023-04-01T04:32:56.774Z,20.13
2023-04-01T04:35:26.409Z,14.43
2023-04-01T04:37:57.012Z,17.17
2023-04-01T04:40:28.258Z,20.50
2023-04-01T04:42:56.258Z,15.98
2023-04-01T04:45:24.938Z,18.75
2023-04-01T04:47:57.697Z,16.50
2023-04-01T04:50:26.699Z,19.33
2023-04-01T04:52:55.928Z,19.15
2023-04-01T04:55:26.047Z,18.98
2023-04-01T04:58:13.425Z,18.95
2023-04-01T05:00:43.767Z,18.73
2023-04-01T05:03:20.893Z,22.48
2023-04-01T05:05:55.745Z,22.20
2023-04-01T05:08:28.632Z,21.05
2023-04-01T05:10:57.292Z,21.10
2023-04-01T05:13:28.363Z,19.85
2023-04-01T05:15:56.294Z,18.92
2023-04-01T05:18:24.493Z,19.92
2023-04-01T05:20:54.400Z,20.13
2023-04-01T05:23:26.332Z,22.33
2023-04-01T05:25:55.057Z,24.70
2023-04-01T05:28:23.177Z,23.80
2023-04-01T05:30:51.254Z,22.95
2023-04-01T05:33:27.116Z,24.88
2023-04-01T05:35:58.991Z,24.02
2023-04-01T05:38:26.485Z,25.00
2023-04-01T05:41:01.543Z,32.08
2023-04-01T05:43:32.012Z,36.00
2023-04-01T05:46:08.435Z,44.08
2023-04-01T05:48:52.006Z,47.15
2023-04-01T05:51:27.843Z,50.25
2023-04-01T05:53:55.774Z,52.47
2023-04-01T05:56:26.099Z,50.58
2023-04-01T05:58:56.385Z,60.08
2023-04-01T06:03:54.107Z,55.47
2023-04-01T06:06:26.537Z,59.97
2023-04-01T06:08:58.439Z,57.30
2023-04-01T06:11:26.652Z,54.53
2023-04-01T06:14:10.094Z,53.38
2023-04-01T06:16:43.220Z,56.13
2023-04-01T06:19:20.239Z,53.83
2023-04-01T06:22:04.823Z,63.70
2023-04-01T06:24:33.627Z,54.13
2023-04-01T06:27:01.411Z,47.13
2023-04-01T06:29:46.282Z,51.85
2023-04-01T06:32:33.696Z,56.60
2023-04-01T06:35:11.262Z,58.38
2023-04-01T06:37:49.471Z,63.40
2023-04-01T06:40:20.421Z,60.10
2023-04-01T06:43:02.492Z,65.40
2023-04-01T06:45:56.697Z,59.17
2023-04-01T06:48:43.254Z,61.92
2023-04-01T06:51:24.398Z,60.08
2023-04-01T06:54:14.316Z,63.67
2023-04-01T06:57:04.258Z,60.70
2023-04-01T06:59:34.670Z,64.40
2023-04-01T07:02:12.322Z,57.30
2023-04-01T07:04:42.404Z,54.28
2023-04-01T07:07:16.872Z,54.28
2023-04-01T07:10:01.700Z,63.40
2023-04-01T07:12:35.819Z,51.78
2023-04-01T07:15:40.857Z,48.70
2023-04-01T07:18:13.189Z,48.25
2023-04-01T07:20:41.938Z,51.40
2023-04-01T07:23:23.903Z,55.42
2023-04-01T07:26:21.965Z,49.97
2023-04-01T07:29:12.243Z,45.78
2023-04-01T07:32:03.663Z,49.85
2023-04-01T07:34:54.678Z,50.47
2023-04-01T07:37:34.931Z,48.88
2023-04-01T07:40:08.778Z,44.97
2023-04-01T07:42:46.608Z,47.35
2023-04-01T07:45:20.677Z,45.15
2023-04-01T07:48:07.074Z,44.90
2023-04-01T07:50:36.814Z,40.92
2023-04-01T07:53:19.342Z,37.15
2023-04-01T07:55:49.757Z,35.78
2023-04-01T07:58:45.770Z,35.75
2023-04-01T08:01:32.144Z,39.80
2023-04-01T08:04:25.026Z,37.72
2023-04-01T08:06:58.184Z,32.45
2023-04-01T08:09:41.997Z,37.42
2023-04-01T08:12:34.511Z,37.00
2023-04-01T08:15:11.193Z,29.20
2023-04-01T08:17:59.128Z,29.90
2023-04-01T08:20:29.862Z,30.20
2023-04-01T08:23:05.781Z,31.52
2023-04-01T08:25:42.018Z,38.95
2023-04-01T08:28:16.879Z,28.10
2023-04-01T08:31:04.891Z,30.40
2023-04-01T08:33:34.416Z,27.70
2023-04-01T08:36:06.037Z,27.17
2023-04-01T08:38:34.182Z,23.73
2023-04-01T08:41:03.248Z,24.42
2023-04-01T08:44:00.041Z,25.13
2023-04-01T08:46:29.301Z,26.48
2023-04-01T08:49:15.615Z,25.00
2023-04-01T08:51:46.811Z,24.65
2023-04-01T08:54:20.725Z,21.90
2023-04-01T08:56:48.834Z,24.45
2023-04-01T08:59:19.103Z,29.05
2023-04-01T09:01:49.825Z,25.58
2023-04-01T09:04:46.717Z,30.63
2023-04-01T09:07:14.706Z,26.63
2023-04-01T09:09:48.570Z,23.92
2023-04-01T09:12:27.313Z,24.10
2023-04-01T09:14:59.025Z,28.75
2023-04-01T09:17:36.693Z,23.73
2023-04-01T09:20:09.441Z,23.67
2023-04-01T09:22:38.537Z,36.17
2023-04-01T09:25:25.025Z,27.95
2023-04-01T09:28:13.041Z,28.83
2023-04-01T09:30:50.912Z,26.45
2023-04-01T09:33:39.078Z,21.88
2023-04-01T09:36:14.958Z,29.48
2023-04-01T09:38:56.099Z,28.08
2023-04-01T09:41:34.277Z,24.42
2023-04-01T09:44:29.225Z,27.55
2023-04-01T09:47:12.395Z,38.03
2023-04-01T09:49:58.277Z,28.88
2023-04-01T09:52:30.034Z,32.28
2023-04-01T09:55:06.927Z,35.97
2023-04-01T09:57:42.191Z,29.70
2023-04-01T10:00:55.395Z,32.92
2023-04-01T10:03:29.230Z,33.08
2023-04-01T10:06:17.173Z,35.38
2023-04-01T10:09:08.365Z,30.17
2023-04-01T10:12:03.624Z,29.42
2023-04-01T10:14:33.452Z,28.98
2023-04-01T10:17:02.582Z,27.23
2023-04-01T10:19:36.397Z,29.23
2023-04-01T10:22:04.264Z,32.03
2023-04-01T10:24:45.856Z,34.58
2023-04-01T10:27:13.706Z,32.17
2023-04-01T10:30:02.202Z,34.42
2023-04-01T10:32:32.945Z,33.80
2023-04-01T10:35:05.547Z,33.10
2023-04-01T10:37:39.250Z,36.35
2023-04-01T10:40:20.650Z,37.70
2023-04-01T10:43:17.675Z,38.17
2023-04-01T10:46:17.270Z,36.38
2023-04-01T10:48:45.616Z,38.08
2023-04-01T10:51:19.770Z,37.33
2023-04-01T10:54:06.003Z,32.10
2023-04-01T10:56:36.522Z,35.60
2023-04-01T10:59:25.441Z,33.25
2023-04-01T11:02:36.347Z,31.83
2023-04-01T11:05:45.298Z,35.15
2023-04-01T11:08:27.082Z,36.95
2023-04-01T11:11:01.034Z,33.30
2023-04-01T11:13:35.532Z,34.05
2023-04-01T11:16:06.156Z,26.65
2023-04-01T11:18:53.999Z,33.67
2023-04-01T11:21:39.663Z,22.35
2023-04-01T11:24:15.649Z,25.40
2023-04-01T11:27:13.114Z,23.20
2023-04-01T11:29:59.128Z,24.52
2023-04-01T11:32:42.527Z,23.55
2023-04-01T11:35:29.941Z,22.52
2023-04-01T11:38:16.584Z,24.98
2023-04-01T11:41:28.446Z,20.85
2023-04-01T11:44:24.263Z,23.27
2023-04-01T11:47:41.928Z,29.50
2023-04-01T11:50:28.708Z,24.42
2023-04-01T11:53:02.677Z,28.00
2023-04-01T11:55:37.550Z,30.52
2023-04-01T11:58:11.468Z,26.25
2023-04-01T12:00:45.717Z,25.58
2023-04-01T12:03:28.530Z,26.77
2023-04-01T12:06:15.716Z,29.13
2023-04-01T12:08:49.831Z,25.50
2023-04-01T12:11:46.966Z,24.00
2023-04-01T12:14:29.637Z,21.52
2023-04-01T12:17:19.610Z,22.00
2023-04-01T12:19:57.142Z,19.80
2023-04-01T12:22:38.496Z,18.90
2023-04-01T12:25:09.708Z,18.30
2023-04-01T12:27:56.140Z,21.50
2023-04-01T12:30:28.870Z,17.77
2023-04-01T12:33:02.621Z,21.15
2023-04-01T12:35:34.008Z,20.50
2023-04-01T12:38:19.791Z,23.27
2023-04-01T12:41:01.911Z,18.95
2023-04-01T12:43:48.265Z,20.00
2023-04-01T12:46:23.518Z,22.40
2023-04-01T12:49:02.057Z,15.98
2023-04-01T12:51:38.859Z,18.60
2023-04-01T12:54:29.546Z,20.20
2023-04-01T12:59:46.004Z,14.13
2023-04-01T13:02:29.991Z,13.77
2023-04-01T13:05:14.869Z,16.92
2023-04-01T13:07:49.749Z,14.13
2023-04-01T13:10:36.451Z,14.30
2023-04-01T13:13:29.589Z,11.52
2023-04-01T13:16:16.613Z,9.43
2023-04-01T13:18:50.189Z,9.82
2023-04-01T13:21:30.209Z,9.70
2023-04-01T13:24:16.512Z,8.05
2023-04-01T13:27:04.014Z,10.93
2023-04-01T13:29:38.360Z,9.70
2023-04-01T13:32:20.089Z,9.13
2023-04-01T13:34:53.893Z,10.73
2023-04-01T13:37:25.818Z,13.07
2023-04-01T13:40:05.658Z,11.10
2023-04-01T13:42:43.623Z,12.73
2023-04-01T13:45:16.770Z,12.57
2023-04-01T13:47:56.612Z,13.25
2023-04-01T13:50:35.059Z,15.38
2023-04-01T13:53:17.524Z,15.52
2023-04-01T13:55:56.798Z,13.60
2023-04-01T13:58:26.511Z,15.05
2023-04-01T14:01:05.731Z,14.27
2023-04-01T14:03:45.444Z,16.58
2023-04-01T14:06:27.662Z,14.00
2023-04-01T14:08:56.335Z,16.48
2023-04-01T14:11:27.105Z,12.30
2023-04-01T14:14:16.074Z,10.80
2023-04-01T14:16:50.032Z,7.38
2023-04-01T14:19:30.206Z,6.05
2023-04-01T14:22:01.652Z,5.30
2023-04-01T14:24:48.655Z,3.70
2023-04-01T14:27:16.310Z,5.95
2023-04-01T14:30:04.130Z,2.50
2023-04-01T14:32:34.537Z,4.55
2023-04-01T14:37:33.786Z,6.15
2023-04-01T14:40:16.743Z,6.97
2023-04-01T14:43:04.184Z,8.68
2023-04-01T14:45:53.745Z,11.73
2023-04-01T14:48:39.713Z,12.50
2023-04-01T14:51:13.458Z,16.08
2023-04-01T14:53:46.992Z,16.73
2023-04-01T14:56:15.034Z,20.60
2023-04-01T14:58:51.884Z,14.15
2023-04-01T15:01:20.278Z,12.68
2023-04-01T15:03:57.019Z,12.48
2023-04-01T15:06:37.480Z,11.13
2023-04-01T15:09:05.130Z,9.85
2023-04-01T15:11:42.178Z,9.70
2023-04-01T15:14:23.604Z,12.30
2023-04-01T15:17:11.637Z,10.90
2023-04-01T15:19:50.060Z,8.95
2023-04-01T15:22:50.340Z,10.75
2023-04-01T15:25:23.996Z,10.15
2023-04-01T15:27:53.893Z,7.72
2023-04-01T15:30:34.918Z,6.35
2023-04-01T15:33:15.845Z,6.63
2023-04-01T15:35:47.462Z,6.65
2023-04-01T15:38:31.436Z,6.95
2023-04-01T15:41:07.812Z,7.07
2023-04-01T15:43:38.190Z,7.10
2023-04-01T15:46:25.111Z,7.20
2023-04-01T15:48:53.541Z,8.23
2023-04-01T15:51:41.073Z,7.05
2023-04-01T15:54:13.669Z,8.60
2023-04-01T15:57:00.891Z,6.95
2023-04-01T15:59:54.031Z,6.63
2023-04-01T16:02:38.466Z,7.43
2023-04-01T16:05:28.249Z,7.50
2023-04-01T16:08:15.349Z,15.90
2023-04-01T16:10:56.522Z,5.82
2023-04-01T16:13:35.843Z,6.38
2023-04-01T16:16:13.627Z,6.35
2023-04-01T16:18:54.795Z,7.32
2023-04-01T16:21:41.160Z,7.03
2023-04-01T16:24:12.328Z,11.95
2023-04-01T16:26:45.479Z,6.53
2023-04-01T16:29:28.852Z,5.63
2023-04-01T16:32:15.227Z,4.63
2023-04-01T16:34:45.574Z,4.28
2023-04-01T16:37:16.927Z,4.55
2023-04-01T16:40:14.983Z,3.35
2023-04-01T16:42:46.185Z,3.60
2023-04-01T16:45:21.209Z,4.25
2023-04-01T16:47:51.629Z,4.18
2023-04-01T16:52:50.235Z,4.35
2023-04-01T16:55:24.595Z,9.50
2023-04-01T16:57:58.006Z,5.70
2023-04-01T17:00:26.383Z,5.88
2023-04-01T17:03:09.538Z,4.95
2023-04-01T17:05:37.896Z,6.07
2023-04-01T17:08:28.503Z,6.47
2023-04-01T17:13:38.573Z,6.45
2023-04-01T17:16:28.918Z,10.50
2023-04-01T17:19:15.645Z,7.78
2023-04-01T17:21:45.307Z,10.90
2023-04-01T17:24:38.017Z,6.32
2023-04-01T17:27:09.443Z,8.02
2023-04-01T17:29:56.181Z,5.82
2023-04-01T17:32:27.743Z,6.93
2023-04-01T17:35:02.269Z,6.93
2023-04-01T17:37:31.133Z,9.30
2023-04-01T17:40:26.918Z,7.20
2023-04-01T17:42:57.780Z,6.57
2023-04-01T17:45:34.366Z,6.60
2023-04-01T17:48:14.117Z,6.75
2023-04-01T17:50:55.691Z,8.93
2023-04-01T17:53:39.000Z,5.93
2023-04-01T17:56:12.753Z,8.20
2023-04-01T17:58:48.819Z,7.22
2023-04-01T18:01:35.408Z,7.03
2023-04-01T18:04:12.900Z,7.25
2023-04-01T18:06:41.147Z,7.68
2023-04-01T18:09:11.705Z,8.80
2023-04-01T18:11:55.361Z,10.13
2023-04-01T18:14:32.364Z,8.63
2023-04-01T18:17:03.183Z,9.35
2023-04-01T18:19:49.686Z,11.27
2023-04-01T18:22:18.759Z,8.32
2023-04-01T18:25:05.660Z,9.95
2023-04-01T18:27:41.799Z,8.27
2023-04-01T18:30:16.039Z,11.07
2023-04-01T18:33:14.329Z,10.43
2023-04-01T18:35:55.063Z,12.07
2023-04-01T18:38:30.786Z,12.70
2023-04-01T18:41:17.299Z,11.23
2023-04-01T18:43:48.242Z,14.63
2023-04-01T18:46:24.766Z,12.10
2023-04-01T18:49:04.976Z,12.25
2023-04-01T18:51:35.865Z,13.52
2023-04-01T18:54:07.576Z,14.27
2023-04-01T18:56:46.423Z,12.55
2023-04-01T18:59:34.632Z,13.05
2023-04-01T19:02:16.019Z,13.32
2023-04-01T19:04:43.740Z,11.75
2023-04-01T19:07:41.292Z,12.00
2023-04-01T19:10:33.293Z,13.20
2023-04-01T19:13:13.398Z,9.35
2023-04-01T19:15:41.554Z,11.35
2023-04-01T19:18:25.328Z,10.38
2023-04-01T19:20:59.390Z,11.75
2023-04-01T19:23:49.918Z,12.43
2023-04-01T19:26:25.112Z,14.70
2023-04-01T19:29:08.486Z,13.95
2023-04-01T19:31:36.817Z,12.88
2023-04-01T19:34:17.093Z,13.93
2023-04-01T19:36:44.744Z,14.43
2023-04-01T19:39:26.150Z,15.57
2023-04-01T19:42:08.035Z,16.65
2023-04-01T19:44:47.247Z,13.50
2023-04-01T19:47:23.826Z,13.38
2023-04-01T19:50:05.623Z,12.98
2023-04-01T19:52:38.526Z,14.10
2023-04-01T19:55:26.164Z,13.02
2023-04-01T19:57:59.942Z,12.65
2023-04-01T20:00:35.813Z,12.80
2023-04-01T20:03:03.709Z,11.93
2023-04-01T20:05:46.467Z,12.73
2023-04-01T20:08:20.887Z,12.32
2023-04-01T20:10:48.945Z,10.18
2023-04-01T20:13:33.161Z,10.15
2023-04-01T20:16:03.214Z,11.73
2023-04-01T20:18:50.583Z,9.68
2023-04-01T20:21:26.544Z,10.07
2023-04-01T20:24:03.119Z,8.90
2023-04-01T20:26:40.788Z,10.18
2023-04-01T20:29:08.730Z,11.82
2023-04-01T20:31:43.375Z,11.98
2023-04-01T20:34:11.984Z,13.57
2023-04-01T20:36:48.619Z,12.82
2023-04-01T20:39:34.991Z,16.05
2023-04-01T20:42:18.083Z,14.98
2023-04-01T20:44:54.714Z,16.65
2023-04-01T20:47:32.536Z,15.20
2023-04-01T20:50:20.072Z,17.48
2023-04-01T20:52:57.271Z,17.92
2023-04-01T20:55:36.609Z,14.75
2023-04-01T20:58:07.578Z,15.65
2023-04-01T21:01:00.503Z,20.30
2023-04-01T21:03:50.028Z,17.05
2023-04-01T21:06:25.175Z,17.70
2023-04-01T21:09:02.435Z,15.43
2023-04-01T21:11:54.715Z,14.63
2023-04-01T21:14:49.898Z,16.60
2023-04-01T21:17:36.987Z,16.27
2023-04-01T21:20:27.968Z,17.70
2023-04-01T21:23:14.537Z,16.63
2023-04-01T21:26:02.737Z,18.60
2023-04-01T21:28:30.585Z,15.60
2023-04-01T21:31:15.086Z,16.60
2023-04-01T21:33:47.277Z,16.13
2023-04-01T21:36:27.256Z,21.83
2023-04-01T21:38:58.584Z,18.23
2023-04-01T21:41:37.160Z,24.52
2023-04-01T21:44:04.719Z,20.58
2023-04-01T21:46:58.132Z,18.85
2023-04-01T21:49:47.196Z,20.48
2023-04-01T21:52:27.680Z,20.10
2023-04-01T21:57:43.811Z,18.55
2023-04-01T22:00:17.541Z,19.67
2023-04-01T22:02:55.744Z,19.17
2023-04-01T22:08:00.804Z,19.77
2023-04-01T22:10:28.452Z,18.25
2023-04-01T22:13:18.060Z,17.15
2023-04-01T22:15:46.242Z,18.20
2023-04-01T22:18:35.934Z,17.58
2023-04-01T22:21:17.377Z,18.42
2023-04-01T22:23:49.859Z,16.35
2023-04-01T22:26:24.462Z,17.58
2023-04-01T22:29:12.184Z,19.38
2023-04-01T22:31:47.410Z,16.38
2023-04-01T22:34:26.880Z,18.88
2023-04-01T22:37:07.423Z,14.95
2023-04-01T22:39:57.062Z,16.48
2023-04-01T22:42:31.669Z,12.93
2023-04-01T22:45:02.473Z,13.02
2023-04-01T22:47:53.535Z,13.55
2023-04-01T22:50:26.077Z,14.00
2023-04-01T22:53:00.894Z,15.48
2023-04-01T22:55:33.423Z,13.60
2023-04-01T22:58:11.012Z,13.93
2023-04-01T23:00:42.526Z,13.60
2023-04-01T23:03:10.202Z,11.13
2023-04-01T23:05:41.637Z,12.40
2023-04-01T23:08:28.059Z,14.70
2023-04-01T23:11:04.426Z,13.25
2023-04-01T23:13:57.976Z,13.57
2023-04-01T23:16:31.166Z,12.98
2023-04-01T23:18:58.751Z,13.45
2023-04-01T23:21:48.529Z,12.80
2023-04-01T23:24:23.262Z,14.40
2023-04-01T23:26:57.094Z,16.88
2023-04-01T23:29:27.012Z,14.77
2023-04-01T23:32:02.813Z,18.90
2023-04-01T23:34:34.894Z,16.58
2023-04-01T23:37:17.298Z,15.38
2023-04-01T23:39:46.794Z,15.55
2023-04-01T23:42:21.007Z,17.08
2023-04-01T23:44:55.649Z,14.23
2023-04-01T23:47:26.685Z,14.85
2023-04-01T23:49:58.701Z,19.05
2023-04-01T23:52:29.567Z,18.17
2023-04-01T23:55:01.464Z,17.10
2023-04-01T23:57:33.958Z,17.63
